sensor_id;sensor_type;location;lat;lon;timestamp;pressure;altitude;pressure_sealevel;temperature;humidity
36852;BME280;22784;52.476;13.424;2022-07-25T00:04:00;100966.91;;;24.60;37.31
36852;BME280;22784;52.476;13.424;2022-07-25T00:08:04;100964.09;;;24.60;37.62
36852;BME280;22784;52.476;13.424;2022-07-25T00:12:08;100945.94;;;24.50;37.69
36852;BME280;22784;52.476;13.424;2022-07-25T00:16:14;100958.53;;;24.60;37.36
36852;BME280;22784;52.476;13.424;2022-07-25T00:20:18;100951.94;;;24.63;37.70
36852;BME280;22784;52.476;13.424;2022-07-25T00:24:21;100947.13;;;24.64;37.59
36852;BME280;22784;52.476;13.424;2022-07-25T00:28:25;100927.47;;;24.58;37.48
36852;BME280;22784;52.476;13.424;2022-07-25T00:32:31;100926.38;;;24.50;37.47
36852;BME280;22784;52.476;13.424;2022-07-25T00:36:35;100922.50;;;24.47;37.42
36852;BME280;22784;52.476;13.424;2022-07-25T00:40:38;100937.03;;;24.52;37.54
36852;BME280;22784;52.476;13.424;2022-07-25T00:44:42;100940.28;;;24.44;38.03
36852;BME280;22784;52.476;13.424;2022-07-25T00:48:48;100933.41;;;24.45;37.93
36852;BME280;22784;52.476;13.424;2022-07-25T00:52:52;100920.81;;;24.35;38.03
36852;BME280;22784;52.476;13.424;2022-07-25T00:56:56;100925.84;;;24.31;38.49
36852;BME280;22784;52.476;13.424;2022-07-25T01:01:00;100910.94;;;24.20;38.23
36852;BME280;22784;52.476;13.424;2022-07-25T01:05:08;100923.81;;;24.17;38.28
36852;BME280;22784;52.476;13.424;2022-07-25T01:09:12;100920.66;;;24.09;38.57
36852;BME280;22784;52.476;13.424;2022-07-25T01:13:16;100903.25;;;24.00;38.40
36852;BME280;22784;52.476;13.424;2022-07-25T01:17:19;100911.91;;;24.02;39.09
36852;BME280;22784;52.476;13.424;2022-07-25T01:21:26;100883.16;;;23.81;39.15
36852;BME280;22784;52.476;13.424;2022-07-25T01:25:29;100901.63;;;23.93;39.43
36852;BME280;22784;52.476;13.424;2022-07-25T01:29:33;100884.13;;;23.78;39.56
36852;BME280;22784;52.476;13.424;2022-07-25T01:33:37;100893.53;;;23.81;40.09
36852;BME280;22784;52.476;13.424;2022-07-25T01:37:43;100894.91;;;23.85;40.04
36852;BME280;22784;52.476;13.424;2022-07-25T01:41:46;100880.88;;;23.80;40.10
36852;BME280;22784;52.476;13.424;2022-07-25T01:45:50;100880.28;;;23.76;40.00
36852;BME280;22784;52.476;13.424;2022-07-25T01:49:54;100886.16;;;23.78;39.89
36852;BME280;22784;52.476;13.424;2022-07-25T01:54:00;100881.81;;;23.77;40.07
36852;BME280;22784;52.476;13.424;2022-07-25T01:58:04;100874.91;;;23.72;40.20
36852;BME280;22784;52.476;13.424;2022-07-25T02:02:08;100863.06;;;23.62;40.03
36852;BME280;22784;52.476;13.424;2022-07-25T02:06:12;100865.66;;;23.66;40.17
36852;BME280;22784;52.476;13.424;2022-07-25T02:10:20;100864.59;;;23.63;40.39
36852;BME280;22784;52.476;13.424;2022-07-25T02:14:24;100861.25;;;23.59;40.00
36852;BME280;22784;52.476;13.424;2022-07-25T02:18:28;100858.34;;;23.54;40.27
36852;BME280;22784;52.476;13.424;2022-07-25T02:22:31;100841.59;;;23.39;40.06
36852;BME280;22784;52.476;13.424;2022-07-25T02:26:37;100854.03;;;23.53;40.39
36852;BME280;22784;52.476;13.424;2022-07-25T02:30:41;100850.03;;;23.45;39.94
36852;BME280;22784;52.476;13.424;2022-07-25T02:34:45;100823.25;;;23.33;40.08
36852;BME280;22784;52.476;13.424;2022-07-25T02:38:48;100836.22;;;23.36;40.31
36852;BME280;22784;52.476;13.424;2022-07-25T02:42:54;100841.78;;;23.36;40.04
36852;BME280;22784;52.476;13.424;2022-07-25T02:46:58;100830.63;;;23.36;39.91
36852;BME280;22784;52.476;13.424;2022-07-25T02:51:02;100821.41;;;23.30;40.53
36852;BME280;22784;52.476;13.424;2022-07-25T02:55:07;100810.91;;;23.24;40.13
36852;BME280;22784;52.476;13.424;2022-07-25T02:59:13;100796.78;;;23.13;40.71
36852;BME280;22784;52.476;13.424;2022-07-25T03:03:17;100812.94;;;23.24;40.39
36852;BME280;22784;52.476;13.424;2022-07-25T03:07:20;100812.38;;;23.20;40.39
36852;BME280;22784;52.476;13.424;2022-07-25T03:11:24;100806.88;;;23.11;40.37
36852;BME280;22784;52.476;13.424;2022-07-25T03:15:30;100808.78;;;23.05;40.44
36852;BME280;22784;52.476;13.424;2022-07-25T03:19:34;100808.13;;;22.95;41.07
36852;BME280;22784;52.476;13.424;2022-07-25T03:23:37;100794.44;;;22.82;41.15
36852;BME280;22784;52.476;13.424;2022-07-25T03:27:41;100793.28;;;22.74;41.20
36852;BME280;22784;52.476;13.424;2022-07-25T03:31:47;100789.06;;;22.79;41.22
36852;BME280;22784;52.476;13.424;2022-07-25T03:35:51;100759.91;;;22.65;41.33
36852;BME280;22784;52.476;13.424;2022-07-25T03:39:56;100773.13;;;22.79;41.14
36852;BME280;22784;52.476;13.424;2022-07-25T03:43:59;100762.00;;;22.70;41.37
36852;BME280;22784;52.476;13.424;2022-07-25T03:48:08;100779.16;;;22.78;41.38
36852;BME280;22784;52.476;13.424;2022-07-25T03:52:12;100767.16;;;22.72;41.43
36852;BME280;22784;52.476;13.424;2022-07-25T03:56:16;100776.06;;;22.76;40.93
36852;BME280;22784;52.476;13.424;2022-07-25T04:00:19;100749.00;;;22.53;41.28
36852;BME280;22784;52.476;13.424;2022-07-25T04:04:26;100762.22;;;22.67;41.62
36852;BME280;22784;52.476;13.424;2022-07-25T04:08:29;100748.66;;;22.60;41.43
36852;BME280;22784;52.476;13.424;2022-07-25T04:12:34;100759.44;;;22.67;41.40
36852;BME280;22784;52.476;13.424;2022-07-25T04:16:39;100745.66;;;22.63;41.67
36852;BME280;22784;52.476;13.424;2022-07-25T04:20:45;100753.25;;;22.63;41.58
36852;BME280;22784;52.476;13.424;2022-07-25T04:24:49;100754.69;;;22.58;41.87
36852;BME280;22784;52.476;13.424;2022-07-25T04:28:52;100750.19;;;22.61;41.51
36852;BME280;22784;52.476;13.424;2022-07-25T04:32:57;100751.75;;;22.62;41.72
36852;BME280;22784;52.476;13.424;2022-07-25T04:37:03;100741.16;;;22.66;41.44
36852;BME280;22784;52.476;13.424;2022-07-25T04:41:07;100730.94;;;22.72;41.81
36852;BME280;22784;52.476;13.424;2022-07-25T04:45:10;100710.31;;;22.69;41.34
36852;BME280;22784;52.476;13.424;2022-07-25T04:49:14;100716.97;;;22.86;41.13
36852;BME280;22784;52.476;13.424;2022-07-25T04:53:20;100702.88;;;22.90;41.32
36852;BME280;22784;52.476;13.424;2022-07-25T04:57:24;100685.47;;;22.95;41.13
36852;BME280;22784;52.476;13.424;2022-07-25T05:01:30;100691.53;;;23.08;41.12
36852;BME280;22784;52.476;13.424;2022-07-25T05:05:34;100670.16;;;23.05;41.18
36852;BME280;22784;52.476;13.424;2022-07-25T05:09:40;100677.16;;;23.15;41.39
36852;BME280;22784;52.476;13.424;2022-07-25T05:13:45;100686.06;;;23.34;40.89
36852;BME280;22784;52.476;13.424;2022-07-25T05:17:48;100682.66;;;23.45;40.99
36852;BME280;22784;52.476;13.424;2022-07-25T05:21:52;100685.38;;;23.54;40.81
36852;BME280;22784;52.476;13.424;2022-07-25T05:25:58;100675.22;;;23.71;40.60
36852;BME280;22784;52.476;13.424;2022-07-25T05:30:02;100671.72;;;23.96;40.58
36852;BME280;22784;52.476;13.424;2022-07-25T05:34:06;100659.06;;;24.21;39.80
36852;BME280;22784;52.476;13.424;2022-07-25T05:38:09;100647.38;;;24.43;38.92
36852;BME280;22784;52.476;13.424;2022-07-25T05:42:15;100660.84;;;24.70;39.21
36852;BME280;22784;52.476;13.424;2022-07-25T05:46:19;100659.84;;;24.99;38.64
36852;BME280;22784;52.476;13.424;2022-07-25T05:50:23;100653.16;;;25.28;37.99
36852;BME280;22784;52.476;13.424;2022-07-25T05:54:27;100656.31;;;25.41;37.76
36852;BME280;22784;52.476;13.424;2022-07-25T05:58:33;100639.03;;;25.43;37.42
36852;BME280;22784;52.476;13.424;2022-07-25T06:02:36;100633.53;;;25.59;37.12
36852;BME280;22784;52.476;13.424;2022-07-25T06:06:40;100645.84;;;25.79;37.05
36852;BME280;22784;52.476;13.424;2022-07-25T06:10:50;100629.84;;;25.90;36.72
36852;BME280;22784;52.476;13.424;2022-07-25T06:14:58;100626.81;;;26.05;36.95
36852;BME280;22784;52.476;13.424;2022-07-25T06:19:01;100630.44;;;26.22;36.67
36852;BME280;22784;52.476;13.424;2022-07-25T06:23:05;100593.03;;;26.25;36.45
36852;BME280;22784;52.476;13.424;2022-07-25T06:27:08;100620.06;;;26.67;36.00
36852;BME280;22784;52.476;13.424;2022-07-25T06:31:15;100618.56;;;26.88;35.77
36852;BME280;22784;52.476;13.424;2022-07-25T06:35:19;100609.59;;;27.12;35.32
36852;BME280;22784;52.476;13.424;2022-07-25T06:39:23;100607.00;;;27.31;35.00
36852;BME280;22784;52.476;13.424;2022-07-25T06:43:28;100592.41;;;27.55;34.52
36852;BME280;22784;52.476;13.424;2022-07-25T06:47:34;100603.00;;;27.84;33.84
36852;BME280;22784;52.476;13.424;2022-07-25T06:51:38;100566.97;;;27.88;33.56
36852;BME280;22784;52.476;13.424;2022-07-25T06:55:42;100572.63;;;28.24;33.31
36852;BME280;22784;52.476;13.424;2022-07-25T06:59:45;100592.50;;;28.67;33.28
36852;BME280;22784;52.476;13.424;2022-07-25T07:03:52;100551.13;;;28.92;32.63
36852;BME280;22784;52.476;13.424;2022-07-25T07:07:56;100549.91;;;29.30;31.91
36852;BME280;22784;52.476;13.424;2022-07-25T07:12:00;100565.50;;;29.74;31.90
36852;BME280;22784;52.476;13.424;2022-07-25T07:16:04;100547.53;;;29.96;31.40
36852;BME280;22784;52.476;13.424;2022-07-25T07:20:11;100553.69;;;30.13;31.00
36852;BME280;22784;52.476;13.424;2022-07-25T07:24:14;100554.03;;;30.23;31.21
36852;BME280;22784;52.476;13.424;2022-07-25T07:28:18;100553.06;;;30.20;31.06
36852;BME280;22784;52.476;13.424;2022-07-25T07:32:22;100551.22;;;30.23;31.35
36852;BME280;22784;52.476;13.424;2022-07-25T07:36:28;100529.88;;;30.27;31.77
36852;BME280;22784;52.476;13.424;2022-07-25T07:40:38;100541.19;;;30.72;31.46
36852;BME280;22784;52.476;13.424;2022-07-25T07:44:42;100535.00;;;30.74;31.12
36852;BME280;22784;52.476;13.424;2022-07-25T07:48:48;100539.34;;;31.01;30.50
36852;BME280;22784;52.476;13.424;2022-07-25T07:52:55;100530.34;;;31.29;30.38
36852;BME280;22784;52.476;13.424;2022-07-25T07:57:00;100530.09;;;31.40;30.57
36852;BME280;22784;52.476;13.424;2022-07-25T08:01:04;100533.91;;;31.43;30.18
36852;BME280;22784;52.476;13.424;2022-07-25T08:05:08;100519.91;;;31.37;30.23
36852;BME280;22784;52.476;13.424;2022-07-25T08:09:15;100517.31;;;31.39;30.28
36852;BME280;22784;52.476;13.424;2022-07-25T08:13:21;100490.38;;;31.38;31.15
36852;BME280;22784;52.476;13.424;2022-07-25T08:17:24;100507.59;;;31.61;30.20
36852;BME280;22784;52.476;13.424;2022-07-25T08:21:28;100501.06;;;31.66;30.63
36852;BME280;22784;52.476;13.424;2022-07-25T08:25:34;100505.38;;;31.80;30.25
36852;BME280;22784;52.476;13.424;2022-07-25T08:29:38;100498.38;;;31.81;30.94
36852;BME280;22784;52.476;13.424;2022-07-25T08:33:42;100484.88;;;31.87;30.17
36852;BME280;22784;52.476;13.424;2022-07-25T08:37:46;100472.97;;;32.02;30.61
36852;BME280;22784;52.476;13.424;2022-07-25T08:41:53;100457.81;;;32.33;30.26
36852;BME280;22784;52.476;13.424;2022-07-25T08:46:01;100490.03;;;32.79;29.94
36852;BME280;22784;52.476;13.424;2022-07-25T08:50:08;100475.44;;;32.68;29.69
36852;BME280;22784;52.476;13.424;2022-07-25T08:54:13;100494.47;;;32.67;29.91
36852;BME280;22784;52.476;13.424;2022-07-25T08:58:19;100458.31;;;32.52;29.93
36852;BME280;22784;52.476;13.424;2022-07-25T09:02:23;100490.47;;;32.63;30.15
36852;BME280;22784;52.476;13.424;2022-07-25T09:06:28;100476.41;;;32.49;30.62
36852;BME280;22784;52.476;13.424;2022-07-25T09:10:34;100464.53;;;32.51;30.41
36852;BME280;22784;52.476;13.424;2022-07-25T09:14:44;100463.22;;;32.52;30.63
36852;BME280;22784;52.476;13.424;2022-07-25T09:18:48;100461.72;;;32.51;30.79
36852;BME280;22784;52.476;13.424;2022-07-25T09:22:52;100458.88;;;32.51;31.05
36852;BME280;22784;52.476;13.424;2022-07-25T09:26:57;100453.41;;;32.74;30.37
36852;BME280;22784;52.476;13.424;2022-07-25T09:31:04;100433.25;;;32.85;30.95
36852;BME280;22784;52.476;13.424;2022-07-25T09:35:09;100430.47;;;32.92;30.32
36852;BME280;22784;52.476;13.424;2022-07-25T09:39:13;100416.00;;;33.04;30.95
36852;BME280;22784;52.476;13.424;2022-07-25T09:43:19;100412.81;;;33.15;30.44
36852;BME280;22784;52.476;13.424;2022-07-25T09:47:26;100403.44;;;33.27;30.42
36852;BME280;22784;52.476;13.424;2022-07-25T09:51:30;100381.59;;;33.51;29.37
36852;BME280;22784;52.476;13.424;2022-07-25T09:55:35;100396.53;;;33.66;29.67
36852;BME280;22784;52.476;13.424;2022-07-25T09:59:38;100368.78;;;33.72;29.73
36852;BME280;22784;52.476;13.424;2022-07-25T10:03:49;100387.84;;;33.95;28.97
36852;BME280;22784;52.476;13.424;2022-07-25T10:07:54;100365.00;;;33.78;29.16
36852;BME280;22784;52.476;13.424;2022-07-25T10:12:03;100373.31;;;33.91;29.16
36852;BME280;22784;52.476;13.424;2022-07-25T10:16:14;100362.53;;;34.04;28.84
36852;BME280;22784;52.476;13.424;2022-07-25T10:20:27;100361.94;;;34.13;28.74
36852;BME280;22784;52.476;13.424;2022-07-25T10:24:34;100348.31;;;34.20;28.85
36852;BME280;22784;52.476;13.424;2022-07-25T10:28:42;100310.50;;;34.17;27.90
36852;BME280;22784;52.476;13.424;2022-07-25T10:32:50;100309.75;;;34.24;28.00
36852;BME280;22784;52.476;13.424;2022-07-25T10:37:08;100306.34;;;34.33;27.81
36852;BME280;22784;52.476;13.424;2022-07-25T10:41:14;100332.31;;;34.70;27.75
36852;BME280;22784;52.476;13.424;2022-07-25T10:45:17;100325.81;;;34.84;27.56
36852;BME280;22784;52.476;13.424;2022-07-25T10:49:23;100317.03;;;34.98;26.95
36852;BME280;22784;52.476;13.424;2022-07-25T10:53:33;100306.16;;;35.11;27.01
36852;BME280;22784;52.476;13.424;2022-07-25T10:57:38;100289.16;;;35.36;26.63
36852;BME280;22784;52.476;13.424;2022-07-25T11:01:41;100288.72;;;35.64;25.88
36852;BME280;22784;52.476;13.424;2022-07-25T11:05:46;100252.91;;;35.86;25.46
36852;BME280;22784;52.476;13.424;2022-07-25T11:09:59;100281.81;;;36.34;25.32
36852;BME280;22784;52.476;13.424;2022-07-25T11:14:13;100273.97;;;36.69;24.74
36852;BME280;22784;52.476;13.424;2022-07-25T11:18:17;100251.88;;;37.14;23.50
36852;BME280;22784;52.476;13.424;2022-07-25T11:22:21;100264.38;;;37.28;23.81
36852;BME280;22784;52.476;13.424;2022-07-25T11:26:27;100256.25;;;37.24;22.65
36852;BME280;22784;52.476;13.424;2022-07-25T11:30:33;100233.00;;;37.74;22.39
36852;BME280;22784;52.476;13.424;2022-07-25T11:34:39;100239.97;;;37.44;22.50
36852;BME280;22784;52.476;13.424;2022-07-25T11:38:47;100249.56;;;37.03;23.24
36852;BME280;22784;52.476;13.424;2022-07-25T11:42:54;100225.84;;;37.27;22.52
36852;BME280;22784;52.476;13.424;2022-07-25T11:46:59;100243.63;;;37.18;22.65
36852;BME280;22784;52.476;13.424;2022-07-25T11:51:12;100234.34;;;36.90;23.53
36852;BME280;22784;52.476;13.424;2022-07-25T11:55:16;100211.13;;;36.94;22.40
36852;BME280;22784;52.476;13.424;2022-07-25T11:59:23;100219.78;;;37.13;23.01
36852;BME280;22784;52.476;13.424;2022-07-25T12:03:36;100173.66;;;37.53;22.59
36852;BME280;22784;52.476;13.424;2022-07-25T12:07:42;100190.53;;;37.88;21.66
36852;BME280;22784;52.476;13.424;2022-07-25T12:11:47;100206.41;;;38.89;20.79
36852;BME280;22784;52.476;13.424;2022-07-25T12:15:55;100192.28;;;40.07;19.88
36852;BME280;22784;52.476;13.424;2022-07-25T12:20:02;100195.16;;;40.28;19.37
36852;BME280;22784;52.476;13.424;2022-07-25T12:24:06;100176.59;;;39.75;19.29
36852;BME280;22784;52.476;13.424;2022-07-25T12:28:10;100183.59;;;40.49;18.90
36852;BME280;22784;52.476;13.424;2022-07-25T12:32:17;100175.47;;;40.23;19.13
36852;BME280;22784;52.476;13.424;2022-07-25T12:36:21;100167.69;;;39.59;19.90
36852;BME280;22784;52.476;13.424;2022-07-25T12:40:25;100160.47;;;39.06;19.64
36852;BME280;22784;52.476;13.424;2022-07-25T12:44:29;100154.69;;;38.44;20.49
36852;BME280;22784;52.476;13.424;2022-07-25T12:48:35;100153.44;;;38.07;20.75
36852;BME280;22784;52.476;13.424;2022-07-25T12:52:39;100084.53;;;37.43;21.40
36852;BME280;22784;52.476;13.424;2022-07-25T12:56:43;100147.88;;;37.90;21.37
36852;BME280;22784;52.476;13.424;2022-07-25T13:00:47;100135.13;;;37.62;21.26
36852;BME280;22784;52.476;13.424;2022-07-25T13:04:54;100135.66;;;37.41;21.17
36852;BME280;22784;52.476;13.424;2022-07-25T13:08:57;100080.25;;;37.06;20.87
36852;BME280;22784;52.476;13.424;2022-07-25T13:13:01;100115.56;;;37.29;21.41
36852;BME280;22784;52.476;13.424;2022-07-25T13:17:05;100119.31;;;37.32;21.65
36852;BME280;22784;52.476;13.424;2022-07-25T13:21:11;100095.59;;;37.20;21.46
36852;BME280;22784;52.476;13.424;2022-07-25T13:25:15;100092.47;;;37.25;21.01
36852;BME280;22784;52.476;13.424;2022-07-25T13:29:19;100096.50;;;37.42;21.30
36852;BME280;22784;52.476;13.424;2022-07-25T13:33:22;100085.53;;;37.09;21.16
36852;BME280;22784;52.476;13.424;2022-07-25T13:37:28;100091.81;;;37.08;21.77
36852;BME280;22784;52.476;13.424;2022-07-25T13:41:32;100069.56;;;36.77;21.08
36852;BME280;22784;52.476;13.424;2022-07-25T13:45:36;100076.00;;;36.68;21.47
36852;BME280;22784;52.476;13.424;2022-07-25T13:49:40;100076.16;;;36.80;21.55
36852;BME280;22784;52.476;13.424;2022-07-25T13:53:49;100072.28;;;36.95;21.43
36852;BME280;22784;52.476;13.424;2022-07-25T13:57:53;100028.94;;;36.77;21.48
36852;BME280;22784;52.476;13.424;2022-07-25T14:01:58;100039.78;;;37.07;21.28
36852;BME280;22784;52.476;13.424;2022-07-25T14:06:08;100049.25;;;37.19;20.91
36852;BME280;22784;52.476;13.424;2022-07-25T14:10:15;100015.19;;;36.92;21.63
36852;BME280;22784;52.476;13.424;2022-07-25T14:14:19;100030.19;;;37.12;21.08
36852;BME280;22784;52.476;13.424;2022-07-25T14:18:25;99998.53;;;36.89;20.83
36852;BME280;22784;52.476;13.424;2022-07-25T14:22:30;100034.72;;;37.25;20.95
36852;BME280;22784;52.476;13.424;2022-07-25T14:26:36;99999.13;;;37.07;21.38
36852;BME280;22784;52.476;13.424;2022-07-25T14:30:40;100008.19;;;37.22;21.02
36852;BME280;22784;52.476;13.424;2022-07-25T14:34:44;100018.66;;;37.10;21.05
36852;BME280;22784;52.476;13.424;2022-07-25T14:38:48;99961.75;;;36.64;21.65
36852;BME280;22784;52.476;13.424;2022-07-25T14:42:55;99999.69;;;36.76;20.66
36852;BME280;22784;52.476;13.424;2022-07-25T14:46:58;100002.38;;;36.65;20.93
36852;BME280;22784;52.476;13.424;2022-07-25T14:51:04;99970.69;;;36.41;21.34
36852;BME280;22784;52.476;13.424;2022-07-25T14:55:11;99996.66;;;36.55;20.91
36852;BME280;22784;52.476;13.424;2022-07-25T14:59:18;99987.00;;;36.31;21.28
36852;BME280;22784;52.476;13.424;2022-07-25T15:03:21;99982.13;;;36.15;22.16
36852;BME280;22784;52.476;13.424;2022-07-25T15:07:25;99950.00;;;35.95;22.20
36852;BME280;22784;52.476;13.424;2022-07-25T15:11:34;99944.91;;;35.93;22.43
36852;BME280;22784;52.476;13.424;2022-07-25T15:15:40;99957.22;;;36.05;22.35
36852;BME280;22784;52.476;13.424;2022-07-25T15:19:44;99951.31;;;35.94;22.12
36852;BME280;22784;52.476;13.424;2022-07-25T15:23:49;99941.59;;;35.87;22.76
36852;BME280;22784;52.476;13.424;2022-07-25T15:27:53;99935.19;;;35.96;21.95
36852;BME280;22784;52.476;13.424;2022-07-25T15:32:03;99868.13;;;35.66;22.36
36852;BME280;22784;52.476;13.424;2022-07-25T15:36:11;99922.50;;;36.07;22.71
36852;BME280;22784;52.476;13.424;2022-07-25T15:40:15;99886.34;;;35.81;22.42
36852;BME280;22784;52.476;13.424;2022-07-25T15:44:19;99877.81;;;35.81;22.29
36852;BME280;22784;52.476;13.424;2022-07-25T15:48:27;99913.38;;;36.08;22.02
36852;BME280;22784;52.476;13.424;2022-07-25T15:52:32;99905.50;;;36.26;22.19
36852;BME280;22784;52.476;13.424;2022-07-25T15:56:36;99896.09;;;36.43;21.73
36852;BME280;22784;52.476;13.424;2022-07-25T16:00:40;99879.91;;;36.36;21.60
36852;BME280;22784;52.476;13.424;2022-07-25T16:04:47;99857.13;;;36.17;21.82
36852;BME280;22784;52.476;13.424;2022-07-25T16:08:50;99842.81;;;35.97;21.61
36852;BME280;22784;52.476;13.424;2022-07-25T16:12:58;99867.22;;;36.00;21.92
36852;BME280;22784;52.476;13.424;2022-07-25T16:17:04;99862.56;;;35.86;21.75
36852;BME280;22784;52.476;13.424;2022-07-25T16:21:11;99820.34;;;35.46;22.06
36852;BME280;22784;52.476;13.424;2022-07-25T16:25:17;99865.56;;;35.61;22.14
36852;BME280;22784;52.476;13.424;2022-07-25T16:29:20;99861.22;;;35.60;22.36
36852;BME280;22784;52.476;13.424;2022-07-25T16:33:25;99813.72;;;35.34;22.23
36852;BME280;22784;52.476;13.424;2022-07-25T16:37:33;99850.28;;;35.56;22.04
36852;BME280;22784;52.476;13.424;2022-07-25T16:41:37;99831.38;;;35.42;22.11
36852;BME280;22784;52.476;13.424;2022-07-25T16:45:41;99755.88;;;34.85;22.42
36852;BME280;22784;52.476;13.424;2022-07-25T16:49:44;99844.69;;;35.39;22.56
36852;BME280;22784;52.476;13.424;2022-07-25T16:53:53;99828.84;;;35.19;22.53
36852;BME280;22784;52.476;13.424;2022-07-25T16:57:57;99823.97;;;35.02;22.94
36852;BME280;22784;52.476;13.424;2022-07-25T17:02:01;99911.47;;;35.13;23.57
36852;BME280;22784;52.476;13.424;2022-07-25T17:06:05;99898.16;;;34.72;25.63
36852;BME280;22784;52.476;13.424;2022-07-25T17:10:13;99919.00;;;34.67;26.82
36852;BME280;22784;52.476;13.424;2022-07-25T17:14:17;99919.97;;;34.27;27.79
36852;BME280;22784;52.476;13.424;2022-07-25T17:18:21;99945.91;;;33.59;36.34
36852;BME280;22784;52.476;13.424;2022-07-25T17:22:25;99951.88;;;32.75;40.55
36852;BME280;22784;52.476;13.424;2022-07-25T17:26:31;100025.06;;;32.41;47.99
36852;BME280;22784;52.476;13.424;2022-07-25T17:30:35;100020.88;;;29.58;78.30
36852;BME280;22784;52.476;13.424;2022-07-25T17:34:38;99947.13;;;27.03;92.68
36852;BME280;22784;52.476;13.424;2022-07-25T17:38:43;100019.00;;;26.16;100.00
36852;BME280;22784;52.476;13.424;2022-07-25T17:42:50;99992.13;;;24.64;100.00
36852;BME280;22784;52.476;13.424;2022-07-25T17:46:54;100048.53;;;24.29;100.00
36852;BME280;22784;52.476;13.424;2022-07-25T17:50:57;100051.47;;;23.92;100.00
36852;BME280;22784;52.476;13.424;2022-07-25T17:55:01;100068.34;;;23.50;100.00
36852;BME280;22784;52.476;13.424;2022-07-25T17:59:11;100058.78;;;23.19;100.00
36852;BME280;22784;52.476;13.424;2022-07-25T18:03:14;100062.56;;;23.16;100.00
36852;BME280;22784;52.476;13.424;2022-07-25T18:07:18;100090.63;;;23.07;100.00
36852;BME280;22784;52.476;13.424;2022-07-25T18:11:22;100038.78;;;22.84;100.00
36852;BME280;22784;52.476;13.424;2022-07-25T18:15:28;100074.75;;;22.82;100.00
36852;BME280;22784;52.476;13.424;2022-07-25T18:19:32;100091.88;;;23.06;100.00
36852;BME280;22784;52.476;13.424;2022-07-25T18:23:36;100035.34;;;23.00;100.00
36852;BME280;22784;52.476;13.424;2022-07-25T18:27:40;100005.75;;;23.08;100.00
36852;BME280;22784;52.476;13.424;2022-07-25T18:31:49;100049.88;;;23.63;100.00
36852;BME280;22784;52.476;13.424;2022-07-25T18:35:53;100046.44;;;23.96;100.00
36852;BME280;22784;52.476;13.424;2022-07-25T18:39:56;100053.88;;;24.38;100.00
36852;BME280;22784;52.476;13.424;2022-07-25T18:44:00;100035.84;;;24.67;100.00
36852;BME280;22784;52.476;13.424;2022-07-25T18:48:07;100006.34;;;24.88;100.00
36852;BME280;22784;52.476;13.424;2022-07-25T18:52:10;100047.38;;;25.44;100.00
36852;BME280;22784;52.476;13.424;2022-07-25T18:56:15;100045.25;;;25.72;100.00
36852;BME280;22784;52.476;13.424;2022-07-25T19:00:18;100039.00;;;25.96;100.00
36852;BME280;22784;52.476;13.424;2022-07-25T19:04:25;100005.88;;;26.00;100.00
36852;BME280;22784;52.476;13.424;2022-07-25T19:08:29;100019.69;;;26.28;100.00
36852;BME280;22784;52.476;13.424;2022-07-25T19:12:32;100013.72;;;26.42;100.00
36852;BME280;22784;52.476;13.424;2022-07-25T19:16:36;100039.09;;;26.56;100.00
36852;BME280;22784;52.476;13.424;2022-07-25T19:20:56;100031.16;;;26.60;100.00
36852;BME280;22784;52.476;13.424;2022-07-25T19:25:28;100033.09;;;26.70;100.00
36852;BME280;22784;52.476;13.424;2022-07-25T19:29:31;100028.25;;;26.71;100.00
36852;BME280;22784;52.476;13.424;2022-07-25T19:33:38;100042.38;;;26.89;100.00
36852;BME280;22784;52.476;13.424;2022-07-25T19:37:44;100046.41;;;26.94;100.00
36852;BME280;22784;52.476;13.424;2022-07-25T19:41:48;99988.94;;;26.52;100.00
36852;BME280;22784;52.476;13.424;2022-07-25T19:45:53;100048.63;;;27.01;100.00
36852;BME280;22784;52.476;13.424;2022-07-25T19:49:56;100053.03;;;26.97;100.00
36852;BME280;22784;52.476;13.424;2022-07-25T19:54:03;100069.53;;;27.00;100.00
36852;BME280;22784;52.476;13.424;2022-07-25T19:58:08;100120.28;;;27.02;100.00
36852;BME280;22784;52.476;13.424;2022-07-25T20:02:11;100112.47;;;26.89;100.00
36852;BME280;22784;52.476;13.424;2022-07-25T20:06:15;100118.84;;;26.90;100.00
36852;BME280;22784;52.476;13.424;2022-07-25T20:10:22;100080.22;;;26.72;100.00
36852;BME280;22784;52.476;13.424;2022-07-25T20:14:26;100099.16;;;26.96;100.00
36852;BME280;22784;52.476;13.424;2022-07-25T20:18:30;100103.44;;;27.02;100.00
36852;BME280;22784;52.476;13.424;2022-07-25T20:22:34;100120.50;;;27.04;100.00
36852;BME280;22784;52.476;13.424;2022-07-25T20:26:40;100117.47;;;27.02;100.00
36852;BME280;22784;52.476;13.424;2022-07-25T20:30:44;100130.94;;;27.09;100.00
36852;BME280;22784;52.476;13.424;2022-07-25T20:34:48;100145.16;;;27.11;100.00
36852;BME280;22784;52.476;13.424;2022-07-25T20:38:52;100148.69;;;27.17;100.00
36852;BME280;22784;52.476;13.424;2022-07-25T20:42:58;100154.88;;;27.10;100.00
36852;BME280;22784;52.476;13.424;2022-07-25T20:47:03;100170.66;;;27.13;100.00
36852;BME280;22784;52.476;13.424;2022-07-25T20:51:07;100179.78;;;27.19;100.00
36852;BME280;22784;52.476;13.424;2022-07-25T20:55:12;100209.88;;;27.19;100.00
36852;BME280;22784;52.476;13.424;2022-07-25T20:59:19;100174.69;;;26.88;100.00
36852;BME280;22784;52.476;13.424;2022-07-25T21:03:22;100213.09;;;26.99;100.00
36852;BME280;22784;52.476;13.424;2022-07-25T21:07:26;100241.59;;;27.08;100.00